Terminal Aerodrome Forecast
Issued by NWS Quad Cities IA IL

Home | Current Version | Previous Version | Text Only | Print | Product List | Glossary On
Versions: 1 2 3 4 5 6 7 8 9 10 11 12 13 14 15 16 17 18 19 20 21 22 23 24 25 26 27 28 29
594
FTUS43 KDVN 011227 AAA
TAFDBQ
TAF AMD
KDBQ 011227Z 0112/0212 05010KT 1 1/2SM -DZ BR OVC003
      TEMPO 0113/0117 3SM -DZ BR
     FM011700 05011KT 3SM -SHRA BR OVC005
     FM012300 03008KT 6SM BR VCSH OVC009
     FM020100 02007KT 6SM BR OVC014
     FM020600 02007KT P6SM BKN030
     FM020800 02007KT 6SM BR SCT030=

USA.gov is the U.S. government's official web portal to all federal, state and local government web resources and services.